Terminal Aerodrome Forecast
Issued by NWS Cleveland, OH

Home | Current Version | Previous Version | Graphics & Text | Print | Product List | Glossary On
Versions: 1 2 3 4 5 6 7 8 9 10 11 12 13 14 15 16 17 18
000
FTUS41 KCLE 281131
TAFTOL
TAF
KTOL 281131Z 2812/2912 VRB03KT P6SM SCT040
     FM281500 19004KT P6SM BKN040
     FM282200 15004KT P6SM FEW040 OVC150=

USA.gov is the U.S. government's official web portal to all federal, state and local government web resources and services.